Time;durP1;ratioP1;P1;durP2;ratioP2;P2;SDS_P1;SDS_P2;PMS_P1;PMS_P2;Temp;Humidity;BMP_temperature;BMP_pressure;BME280_temperature;BME280_humidity;BME280_pressure;Samples;Min_cycle;Max_cycle;Signal;HPM_P1;HPM_P2
2021/09/17 00:00:46;;;;;;;12.90;9.40;;;;;;;22.47;61.69;94984.03;5034013;28;20487;-80
2021/09/17 00:03:13;;;;;;;11.57;10.37;;;;;;;22.45;61.79;94973.53;5034151;28;20465;-80
2021/09/17 00:05:40;;;;;;;14.20;9.73;;;;;;;22.44;61.24;94973.75;5015609;28;20445;-80
2021/09/17 00:08:07;;;;;;;14.50;10.03;;;;;;;22.43;60.37;94972.09;5015255;28;20459;-80
2021/09/17 00:10:34;;;;;;;14.43;10.60;;;;;;;22.41;59.33;94960.78;5033921;28;20455;-80
2021/09/17 00:13:01;;;;;;;9.43;7.70;;;;;;;22.38;58.99;94953.16;5015542;28;20440;-80
2021/09/17 00:15:28;;;;;;;13.27;9.90;;;;;;;22.35;58.71;94943.69;5033726;28;20452;-80
2021/09/17 00:17:56;;;;;;;9.93;9.03;;;;;;;22.32;58.73;94940.59;5034158;28;20465;-80
2021/09/17 00:20:23;;;;;;;10.30;8.07;;;;;;;22.32;59.02;94936.09;5033745;28;20491;-80
2021/09/17 00:22:50;;;;;;;10.50;9.30;;;;;;;22.33;59.44;94934.22;5033768;28;20452;-80
2021/09/17 00:25:17;;;;;;;9.50;8.60;;;;;;;22.30;59.72;94934.63;5033831;28;20497;-80
2021/09/17 00:27:44;;;;;;;9.43;8.63;;;;;;;22.30;59.56;94942.66;5033756;28;20449;-80
2021/09/17 00:30:11;;;;;;;13.17;10.57;;;;;;;22.28;60.09;94940.19;5033816;28;20448;-80
2021/09/17 00:32:39;;;;;;;13.07;9.97;;;;;;;22.27;59.77;94945.75;5033885;28;20454;-80
2021/09/17 00:35:08;;;;;;;13.00;9.93;;;;;;;22.25;59.10;94943.25;5033468;28;20456;-80
2021/09/17 00:37:35;;;;;;;13.30;9.57;;;;;;;22.23;59.13;94942.63;5033380;28;20451;-80
2021/09/17 00:40:03;;;;;;;12.87;9.00;;;;;;;22.21;58.51;94931.31;5033572;28;20458;-80
2021/09/17 00:42:35;;;;;;;12.20;9.13;;;;;;;22.20;58.94;94930.47;5033372;28;20459;-80
2021/09/17 00:45:02;;;;;;;10.47;9.37;;;;;;;22.18;59.00;94932.53;5033403;28;20476;-80
2021/09/17 00:47:29;;;;;;;10.70;9.13;;;;;;;22.18;59.32;94929.84;5033238;28;20449;-80
2021/09/17 00:49:56;;;;;;;9.20;8.30;;;;;;;22.18;59.45;94929.84;5033472;28;20457;-80
2021/09/17 00:52:24;;;;;;;10.73;8.40;;;;;;;22.17;59.58;94922.03;5030858;28;20457;-80
2021/09/17 00:54:52;;;;;;;10.00;9.00;;;;;;;22.14;59.22;94920.59;5033488;28;20445;-80
2021/09/17 00:57:19;;;;;;;10.73;9.63;;;;;;;22.04;60.01;94913.97;5032849;28;21000;-80
2021/09/17 00:59:46;;;;;;;10.80;9.70;;;;;;;22.06;60.13;94919.94;5033004;28;20448;-80
2021/09/17 01:02:13;;;;;;;10.70;9.70;;;;;;;21.99;60.59;94919.91;5032743;28;20848;-81
2021/09/17 01:04:40;;;;;;;11.07;9.03;;;;;;;21.96;60.53;94915.75;5032993;28;20826;-81
2021/09/17 01:07:07;;;;;;;13.07;8.70;;;;;;;21.94;60.69;94909.78;5032751;28;20447;-81
2021/09/17 01:09:36;;;;;;;10.57;9.47;;;;;;;21.93;60.35;94915.34;5032702;28;20449;-81
2021/09/17 01:12:05;;;;;;;10.43;9.10;;;;;;;21.94;60.24;94906.28;5032651;28;20944;-81
2021/09/17 01:14:33;;;;;;;11.63;9.97;;;;;;;21.94;60.36;94901.78;5032766;28;20448;-81
2021/09/17 01:17:00;;;;;;;10.73;8.53;;;;;;;21.98;59.72;94902.22;5033035;28;20816;-81
2021/09/17 01:19:27;;;;;;;10.50;9.40;;;;;;;22.02;59.51;94903.47;5032670;28;21032;-81
2021/09/17 01:22:00;;;;;;;11.10;10.10;;;;;;;22.03;59.13;94894.41;5032698;28;20492;-81
2021/09/17 01:24:27;;;;;;;9.93;8.03;;;;;;;22.00;58.46;94889.47;5032866;28;20449;-81
2021/09/17 01:26:54;;;;;;;11.83;9.80;;;;;;;22.00;58.63;94886.81;5032651;28;20463;-81
2021/09/17 01:29:21;;;;;;;10.97;9.73;;;;;;;21.99;58.17;94882.50;5032383;28;20457;-80
2021/09/17 01:31:49;;;;;;;10.60;9.50;;;;;;;21.95;59.15;94881.22;5032631;28;20447;-81
2021/09/17 01:34:18;;;;;;;11.60;8.87;;;;;;;21.93;59.18;94884.09;5013962;28;20451;-81
2021/09/17 01:36:45;;;;;;;10.67;9.23;;;;;;;21.94;58.91;94874.22;5032632;28;20440;-81
2021/09/17 01:39:14;;;;;;;12.63;9.70;;;;;;;21.94;58.98;94885.75;5032404;28;20452;-81
2021/09/17 01:41:42;;;;;;;12.17;8.90;;;;;;;21.93;58.99;94883.25;5032172;28;20490;-81
2021/09/17 01:44:09;;;;;;;11.97;9.90;;;;;;;21.93;59.09;94880.59;5032214;28;20957;-81
2021/09/17 01:46:36;;;;;;;9.50;8.60;;;;;;;21.90;58.68;94887.16;5032631;28;20444;-81
2021/09/17 01:49:03;;;;;;;10.70;9.50;;;;;;;21.91;58.87;94890.66;5032378;28;20971;-81
2021/09/17 01:51:30;;;;;;;10.93;9.67;;;;;;;21.91;58.96;94879.97;5032209;28;20459;-81
2021/09/17 01:53:57;;;;;;;14.73;9.97;;;;;;;21.88;58.95;94877.69;5030005;28;20455;-81
2021/09/17 01:56:26;;;;;;;11.70;9.53;;;;;;;21.86;58.52;94875.22;5032416;28;20485;-80
2021/09/17 01:58:53;;;;;;;11.97;10.67;;;;;;;21.87;58.54;94873.38;5032264;28;20978;-80
2021/09/17 02:01:21;;;;;;;10.43;9.43;;;;;;;21.87;58.32;94873.38;4997002;28;20570;-81
2021/09/17 02:03:47;;;;;;;9.63;8.70;;;;;;;21.83;58.34;94872.13;5031985;28;20498;-81
2021/09/17 02:06:19;;;;;;;17.00;10.40;;;;;;;21.81;58.70;94866.19;5013391;28;20443;-80
2021/09/17 02:08:46;;;;;;;13.83;9.40;;;;;;;21.82;58.69;94865.97;5032103;28;20439;-80
2021/09/17 02:11:13;;;;;;;11.63;10.47;;;;;;;21.87;58.70;94868.03;5032018;28;20785;-81
2021/09/17 02:13:42;;;;;;;9.60;8.67;;;;;;;21.87;59.06;94873.38;4996968;28;20437;-81
2021/09/17 02:16:09;;;;;;;9.60;8.80;;;;;;;21.89;59.57;94863.31;5031794;28;20476;-81
2021/09/17 02:18:36;;;;;;;11.83;9.90;;;;;;;21.87;59.49;94854.69;5031849;28;20939;-81
2021/09/17 02:21:03;;;;;;;9.97;8.97;;;;;;;21.85;59.62;94860.22;5032885;28;20491;-81
2021/09/17 02:23:31;;;;;;;11.03;9.27;;;;;;;21.78;59.75;94853.22;5035841;28;20447;-80
2021/09/17 02:25:57;;;;;;;13.73;10.10;;;;;;;21.76;59.79;94852.59;5035747;28;20441;-81
2021/09/17 02:28:24;;;;;;;9.93;8.93;;;;;;;21.75;60.19;94848.28;5035882;28;20448;-81
2021/09/17 02:30:53;;;;;;;11.53;9.50;;;;;;;21.73;59.95;94853.00;5035892;28;20804;-81
2021/09/17 02:33:20;;;;;;;11.57;10.03;;;;;;;21.73;59.96;94850.31;5035617;28;20448;-81
2021/09/17 02:35:47;;;;;;;9.73;8.73;;;;;;;21.71;59.95;94849.72;5017025;28;20455;-80
2021/09/17 02:38:15;;;;;;;10.63;9.00;;;;;;;21.73;60.19;94848.47;5035565;28;20451;-81
2021/09/17 02:40:42;;;;;;;11.27;10.10;;;;;;;21.73;60.28;94848.47;5035555;28;20455;-81
2021/09/17 02:43:09;;;;;;;10.47;9.47;;;;;;;21.73;60.45;94850.31;5035628;28;20458;-80
2021/09/17 02:45:36;;;;;;;10.70;8.80;;;;;;;21.71;60.38;94847.03;5035706;28;20817;-81
2021/09/17 02:48:05;;;;;;;11.23;9.30;;;;;;;21.69;60.48;94843.75;5035912;28;20459;-81
2021/09/17 02:50:33;;;;;;;12.17;9.97;;;;;;;21.69;61.69;94849.09;5016535;28;20457;-81
2021/09/17 02:53:00;;;;;;;10.30;9.20;;;;;;;21.65;61.72;94846.78;5035375;28;20453;-81
2021/09/17 02:55:27;;;;;;;11.83;9.33;;;;;;;21.61;61.81;94836.69;5035618;28;20448;-80
2021/09/17 02:57:54;;;;;;;13.87;11.27;;;;;;;21.55;62.92;94846.34;5016685;28;20476;-80
2021/09/17 03:00:21;;;;;;;15.60;11.90;;;;;;;21.53;63.87;94845.72;5034933;28;20450;-80
2021/09/17 03:02:48;;;;;;;11.27;10.17;;;;;;;21.46;64.61;94844.88;5035106;28;20487;-80
2021/09/17 03:05:17;;;;;;;13.00;11.03;;;;;;;21.41;65.22;94844.63;5035196;28;20443;-80
2021/09/17 03:07:44;;;;;;;10.90;9.77;;;;;;;21.34;65.45;94851.75;5034905;28;20444;-81
2021/09/17 03:10:14;;;;;;;14.53;11.07;;;;;;;21.33;65.95;94845.59;5034814;28;20454;-81
2021/09/17 03:12:41;;;;;;;19.03;11.80;;;;;;;21.31;66.42;94836.16;5017201;28;20456;-81
2021/09/17 03:15:09;;;;;;;13.40;11.37;;;;;;;21.32;65.90;94838.63;5034819;28;21095;-81
2021/09/17 03:17:36;;;;;;;15.10;11.10;;;;;;;21.14;66.76;94842.81;5016203;28;20457;-81
2021/09/17 03:20:03;;;;;;;12.43;11.27;;;;;;;21.14;66.77;94846.31;5034779;28;20965;-80
2021/09/17 03:22:31;;;;;;;14.50;10.83;;;;;;;21.12;66.98;94840.34;5034721;28;20486;-80
2021/09/17 03:24:58;;;;;;;15.77;11.43;;;;;;;21.09;66.76;94839.88;5034826;28;20805;-80
2021/09/17 03:27:25;;;;;;;13.03;10.97;;;;;;;21.09;66.70;94837.22;5034797;28;20453;-81
2021/09/17 03:29:52;;;;;;;19.97;11.00;;;;;;;21.09;66.57;94831.88;5034620;28;20446;-81
2021/09/17 03:32:19;;;;;;;13.10;10.30;;;;;;;21.10;66.38;94836.19;5034375;28;20484;-81
2021/09/17 03:34:46;;;;;;;12.30;10.37;;;;;;;21.11;66.00;94836.03;5016087;28;20443;-81
2021/09/17 03:37:13;;;;;;;11.27;9.70;;;;;;;21.14;65.28;94842.81;5034685;28;20776;-80
2021/09/17 03:39:41;;;;;;;10.93;9.83;;;;;;;21.14;65.31;94845.47;5034505;28;20449;-81
2021/09/17 03:42:08;;;;;;;13.40;11.47;;;;;;;21.12;64.89;94844.84;5034164;28;20484;-81
2021/09/17 03:44:35;;;;;;;14.40;11.10;;;;;;;21.07;64.60;94848.09;5034323;28;20814;-80
2021/09/17 03:47:03;;;;;;;12.57;9.83;;;;;;;21.08;64.20;94848.91;5034256;28;20451;-81
2021/09/17 03:49:29;;;;;;;11.17;10.17;;;;;;;21.03;64.19;94844.97;5034417;28;20461;-81
2021/09/17 03:51:57;;;;;;;12.23;9.10;;;;;;;21.07;64.23;94841.91;5034238;28;20447;-81
2021/09/17 03:54:27;;;;;;;12.07;10.77;;;;;;;21.06;63.57;94834.94;5034184;28;20960;-81
2021/09/17 03:56:56;;;;;;;10.73;9.50;;;;;;;21.07;63.99;94847.25;5034478;28;20548;-81
2021/09/17 03:59:24;;;;;;;15.27;10.70;;;;;;;21.08;64.92;94851.56;5015807;28;20435;-81
2021/09/17 04:01:50;;;;;;;14.97;10.10;;;;;;;21.10;64.65;94855.69;5033937;28;20490;-81
2021/09/17 04:04:17;;;;;;;12.00;10.37;;;;;;;21.08;64.74;94846.25;4999111;28;20443;-80
2021/09/17 04:06:45;;;;;;;11.77;10.50;;;;;;;21.07;65.06;94840.06;5034167;28;20436;-80
2021/09/17 04:09:12;;;;;;;10.57;9.47;;;;;;;21.07;64.73;94847.25;5034003;28;20446;-80
2021/09/17 04:11:39;;;;;;;19.40;10.30;;;;;;;21.03;64.67;94846.81;5034343;28;20457;-81
2021/09/17 04:14:08;;;;;;;11.43;9.30;;;;;;;21.00;64.93;94839.22;5033921;28;20443;-81
2021/09/17 04:16:35;;;;;;;11.90;10.80;;;;;;;20.97;65.04;94840.44;5033830;28;20827;-81
2021/09/17 04:19:01;;;;;;;12.00;10.80;;;;;;;20.97;65.34;94840.44;5033827;28;20447;-81
2021/09/17 04:21:28;;;;;;;11.10;10.00;;;;;;;20.96;65.38;94849.47;4998964;28;20811;-80
2021/09/17 04:23:56;;;;;;;16.87;10.27;;;;;;;20.92;65.72;94847.38;5033877;28;20458;-81
2021/09/17 04:26:23;;;;;;;11.80;9.53;;;;;;;20.95;65.98;94853.16;5033590;28;20804;-81
2021/09/17 04:28:51;;;;;;;11.90;10.40;;;;;;;20.96;66.15;94852.13;5033569;28;20841;-81
2021/09/17 04:31:19;;;;;;;13.63;10.10;;;;;;;20.98;66.02;94858.09;5033330;28;20458;-81
2021/09/17 04:33:46;;;;;;;11.97;10.47;;;;;;;21.00;66.27;94858.72;5015485;28;20522;-87
2021/09/17 04:36:13;;;;;;;13.77;10.87;;;;;;;21.03;66.19;94861.00;5034892;28;20442;-85
2021/09/17 04:38:40;;;;;;;15.70;10.83;;;;;;;21.12;66.06;94863.53;5034436;28;20447;-88
2021/09/17 04:41:07;;;;;;;14.53;11.23;;;;;;;21.20;65.23;94871.38;5034459;28;20458;-82
2021/09/17 04:43:34;;;;;;;18.63;10.67;;;;;;;21.22;64.79;94870.16;5015512;28;20573;-82
2021/09/17 04:46:02;;;;;;;22.20;11.07;;;;;;;21.26;64.81;94870.63;5034306;28;20925;-82
2021/09/17 04:48:30;;;;;;;18.40;11.00;;;;;;;21.24;65.18;94870.00;5034449;28;20535;-81
2021/09/17 04:50:57;;;;;;;14.50;10.50;;;;;;;21.23;64.85;94865.66;5034898;28;20448;-81
2021/09/17 04:53:24;;;;;;;15.70;10.50;;;;;;;21.19;64.52;94859.06;5034526;28;20437;-81
2021/09/17 04:55:51;;;;;;;11.80;10.10;;;;;;;21.17;64.42;94858.44;5015941;28;21228;-79
2021/09/17 04:58:18;;;;;;;20.50;12.07;;;;;;;21.17;64.38;94851.25;5034666;28;20522;-79
2021/09/17 05:00:45;;;;;;;14.67;10.97;;;;;;;21.15;65.08;94858.63;5034250;28;20435;-78
2021/09/17 05:03:12;;;;;;;17.10;10.90;;;;;;;21.12;66.00;94856.34;5034107;28;20495;-78
2021/09/17 05:05:40;;;;;;;16.67;11.97;;;;;;;21.12;65.75;94852.84;5033973;28;20802;-79
2021/09/17 05:08:07;;;;;;;13.53;10.43;;;;;;;21.11;65.38;94856.53;5033329;28;20446;-78
2021/09/17 05:10:34;;;;;;;15.00;10.27;;;;;;;21.12;65.45;94852.84;5032800;28;20937;-80
2021/09/17 05:13:01;;;;;;;14.83;9.93;;;;;;;21.12;65.68;94852.84;5032578;28;20446;-78
2021/09/17 05:15:28;;;;;;;18.13;11.47;;;;;;;21.12;65.53;94850.19;5033005;28;20537;-79
2021/09/17 05:17:55;;;;;;;20.13;10.70;;;;;;;21.13;65.46;94854.50;5033131;28;20462;-79
2021/09/17 05:20:22;;;;;;;20.13;10.67;;;;;;;21.13;65.49;94843.84;5014337;28;20822;-79
2021/09/17 05:22:50;;;;;;;17.43;9.87;;;;;;;21.11;65.53;94852.03;5032523;28;20489;-78
2021/09/17 05:25:17;;;;;;;11.90;10.33;;;;;;;21.10;65.50;94854.88;5032730;28;20809;-80
2021/09/17 05:27:44;;;;;;;12.67;9.70;;;;;;;21.12;66.25;94863.53;5032837;28;20443;-79
2021/09/17 05:30:11;;;;;;;14.27;10.40;;;;;;;21.15;65.71;94863.97;5033509;28;20440;-79
2021/09/17 05:32:39;;;;;;;23.13;11.60;;;;;;;21.21;66.02;94857.84;5033733;28;20448;-79
2021/09/17 05:35:07;;;;;;;16.40;9.67;;;;;;;21.26;66.66;94854.59;5033535;28;20802;-79
2021/09/17 05:37:34;;;;;;;15.70;11.07;;;;;;;21.24;66.07;94856.66;5033469;28;20479;-79
2021/09/17 05:40:02;;;;;;;14.13;10.93;;;;;;;21.25;68.06;94834.28;5033497;28;20454;-79
2021/09/17 05:42:29;;;;;;;14.40;10.53;;;;;;;21.34;68.94;94835.75;4982496;28;20574;-79
2021/09/17 05:44:56;;;;;;;17.67;10.40;;;;;;;21.53;68.08;94840.38;5033639;28;20460;-78
2021/09/17 05:47:23;;;;;;;14.63;10.17;;;;;;;21.63;66.74;94843.50;5033677;28;20449;-79
2021/09/17 05:49:50;;;;;;;12.00;10.27;;;;;;;21.67;66.40;94845.75;5033133;28;20558;-79
2021/09/17 05:52:17;;;;;;;15.53;10.67;;;;;;;21.76;70.43;94850.75;5033943;28;20435;-80
2021/09/17 05:54:44;;;;;;;13.57;9.83;;;;;;;21.95;69.64;94854.50;5014831;28;20448;-80
2021/09/17 05:57:13;;;;;;;20.43;11.50;;;;;;;22.16;70.08;94856.25;5033070;28;21031;-80
2021/09/17 05:59:40;;;;;;;13.30;11.40;;;;;;;22.34;68.08;94842.31;5032976;28;20534;-80
2021/09/17 06:02:08;;;;;;;15.10;11.10;;;;;;;22.45;64.78;94845.19;5033564;28;20456;-80
2021/09/17 06:04:35;;;;;;;22.83;10.80;;;;;;;22.45;63.87;94839.00;5033166;28;20448;-81
2021/09/17 06:07:02;;;;;;;28.17;11.10;;;;;;;22.38;63.58;94836.34;5033672;28;20760;-79
2021/09/17 06:09:29;;;;;;;12.93;11.60;;;;;;;22.47;63.40;94837.78;5033665;28;20782;-80
2021/09/17 06:11:56;;;;;;;24.43;11.60;;;;;;;22.74;63.28;94841.28;5033079;28;20449;-79
2021/09/17 06:14:24;;;;;;;12.60;10.80;;;;;;;23.07;62.79;94840.47;5033535;28;20454;-79
2021/09/17 06:16:51;;;;;;;33.93;13.27;;;;;;;23.43;59.64;94840.00;5033094;28;20938;-80
2021/09/17 06:19:18;;;;;;;25.27;12.33;;;;;;;23.79;59.04;94848.34;5033017;28;20556;-80
2021/09/17 06:21:45;;;;;;;23.87;11.77;;;;;;;24.01;55.70;94843.53;5032174;28;20448;-80
2021/09/17 06:24:12;;;;;;;19.53;11.13;;;;;;;24.07;55.77;94850.69;5013280;28;20480;-79
2021/09/17 06:26:39;;;;;;;18.27;11.60;;;;;;;24.10;55.78;94849.44;5032009;28;20803;-79
2021/09/17 06:29:07;;;;;;;17.63;10.73;;;;;;;24.16;55.26;94842.41;5031949;28;20487;-79
2021/09/17 06:31:36;;;;;;;16.40;11.20;;;;;;;24.36;56.82;94835.09;5031662;28;20454;-80
2021/09/17 06:34:04;;;;;;;16.53;11.83;;;;;;;24.64;55.38;94832.81;5031719;28;20453;-80
2021/09/17 06:36:31;;;;;;;27.53;12.27;;;;;;;24.93;53.36;94825.97;5032006;28;20451;-80
2021/09/17 06:39:00;;;;;;;19.87;10.70;;;;;;;25.19;52.42;94816.88;5031448;28;20448;-80
2021/09/17 06:41:28;;;;;;;12.43;9.87;;;;;;;25.39;51.02;94824.72;5031729;28;20465;-80
2021/09/17 06:43:55;;;;;;;11.57;9.83;;;;;;;25.59;50.69;94828.03;5031457;28;20580;-81
2021/09/17 06:46:22;;;;;;;15.23;10.07;;;;;;;25.79;49.50;94835.88;5033047;28;20454;-80
2021/09/17 06:48:50;;;;;;;15.03;9.83;;;;;;;25.92;49.34;94835.72;5032774;28;20906;-80
2021/09/17 06:51:17;;;;;;;12.93;10.60;;;;;;;26.15;49.43;94845.75;5033658;28;20534;-80
2021/09/17 06:53:44;;;;;;;10.97;9.93;;;;;;;26.33;48.85;94828.75;5033394;28;20801;-80
2021/09/17 06:56:12;;;;;;;11.73;9.70;;;;;;;26.58;45.55;94825.09;5032482;28;20481;-79
2021/09/17 06:58:39;;;;;;;12.53;9.70;;;;;;;26.82;45.11;94827.59;5032857;28;20836;-79
2021/09/17 07:01:06;;;;;;;9.60;8.60;;;;;;;27.00;42.99;94832.13;5014187;28;20918;-79
2021/09/17 07:03:33;;;;;;;9.90;8.90;;;;;;;27.08;42.26;94834.47;5032766;28;20486;-80
2021/09/17 07:06:01;;;;;;;9.30;8.40;;;;;;;27.17;42.77;94846.50;5034392;28;20799;-78
2021/09/17 07:08:28;;;;;;;9.63;8.00;;;;;;;27.25;41.13;94839.97;5036699;28;20446;-79
2021/09/17 07:10:55;;;;;;;9.10;7.37;;;;;;;27.33;42.57;94831.53;5036261;28;20530;-78
2021/09/17 07:13:22;;;;;;;15.20;9.07;;;;;;;27.43;42.46;94831.75;5017963;28;20438;-78
2021/09/17 07:15:49;;;;;;;11.13;8.73;;;;;;;27.49;41.33;94827.31;5036018;28;20438;-79
2021/09/17 07:18:16;;;;;;;9.77;8.07;;;;;;;27.60;41.98;94822.94;5036219;28;20461;-79
2021/09/17 07:20:43;;;;;;;13.43;8.70;;;;;;;27.65;41.09;94810.41;5035767;28;20442;-78
2021/09/17 07:23:12;;;;;;;10.63;8.00;;;;;;;27.89;42.48;94808.50;5035664;28;20517;-78
2021/09/17 07:25:39;;;;;;;13.90;8.30;;;;;;;28.17;40.93;94791.50;5035875;28;20448;-78
2021/09/17 07:28:07;;;;;;;11.23;8.47;;;;;;;28.39;40.82;94791.66;5034987;28;20447;-78
2021/09/17 07:30:34;;;;;;;11.80;9.30;;;;;;;28.52;41.99;94791.34;5036031;28;20477;-78
2021/09/17 07:33:02;;;;;;;16.73;9.10;;;;;;;28.12;42.79;94794.09;5027422;28;20928;-78
2021/09/17 07:35:29;;;;;;;11.87;9.47;;;;;;;28.34;41.37;94789.69;5022792;28;20449;-78
2021/09/17 07:37:57;;;;;;;10.07;9.17;;;;;;;28.50;42.44;94789.94;5034772;28;20442;-79
2021/09/17 07:40:26;;;;;;;15.53;8.87;;;;;;;28.57;40.04;94785.19;5034548;28;20447;-78
2021/09/17 07:42:53;;;;;;;9.70;8.80;;;;;;;28.62;40.46;94782.59;5034746;28;20992;-78
2021/09/17 07:45:23;;;;;;;13.53;9.07;;;;;;;28.78;40.32;94772.88;5035463;28;20453;-78
2021/09/17 07:47:51;;;;;;;15.57;8.90;;;;;;;28.99;41.40;94770.28;5035590;28;20446;-78
2021/09/17 07:50:18;;;;;;;15.60;9.40;;;;;;;29.15;39.20;94774.00;5016737;28;20472;-78
2021/09/17 07:52:46;;;;;;;13.17;8.67;;;;;;;29.32;38.61;94770.47;5034779;28;20529;-78
2021/09/17 07:55:13;;;;;;;10.30;9.30;;;;;;;29.43;40.99;94764.09;5034203;28;20530;-78
2021/09/17 07:57:42;;;;;;;10.17;8.73;;;;;;;29.47;38.65;94766.09;5034181;28;20921;-78
2021/09/17 08:00:11;;;;;;;9.80;8.80;;;;;;;29.54;39.53;94763.22;5034411;28;20493;-78
2021/09/17 08:02:39;;;;;;;12.27;9.00;;;;;;;29.22;37.94;94765.75;5034248;28;20442;-79
2021/09/17 08:05:06;;;;;;;14.83;8.80;;;;;;;28.80;37.36;94757.22;5034178;28;20530;-78
2021/09/17 08:07:34;;;;;;;15.57;8.57;;;;;;;28.98;38.35;94770.53;5048466;28;20675;-78
2021/09/17 08:10:00;;;;;;;10.87;8.63;;;;;;;29.10;38.21;94759.59;5034129;28;20461;-79
2021/09/17 08:12:28;;;;;;;12.07;8.60;;;;;;;29.13;38.74;94748.28;5015339;28;20441;-78
2021/09/17 08:14:56;;;;;;;11.13;9.03;;;;;;;29.24;38.93;94741.97;5033833;28;20457;-78
2021/09/17 08:17:23;;;;;;;12.80;9.03;;;;;;;29.31;38.54;94737.19;5032880;28;20450;-79
2021/09/17 08:19:50;;;;;;;11.50;8.33;;;;;;;29.35;38.17;94722.09;5033759;28;20453;-78
2021/09/17 08:22:17;;;;;;;10.77;8.37;;;;;;;28.96;37.41;94719.44;5034579;28;20489;-78
2021/09/17 08:24:44;;;;;;;12.43;8.93;;;;;;;28.97;38.31;94723.75;5034390;28;20581;-80
2021/09/17 08:27:11;;;;;;;15.63;10.20;;;;;;;28.80;38.35;94722.94;5034399;28;20443;-78
2021/09/17 08:29:38;;;;;;;10.63;9.00;;;;;;;28.96;40.51;94724.84;5034642;28;20443;-78
2021/09/17 08:32:08;;;;;;;12.37;9.30;;;;;;;29.11;40.08;94718.00;5032039;28;20960;-78
2021/09/17 08:34:35;;;;;;;10.73;8.70;;;;;;;28.58;38.82;94712.06;5016259;28;20888;-78
2021/09/17 08:37:07;;;;;;;10.10;9.10;;;;;;;28.75;39.01;94709.34;5034695;28;20450;-78
2021/09/17 08:39:36;;;;;;;10.73;8.47;;;;;;;28.58;39.75;94711.22;5016548;28;20443;-78
2021/09/17 08:42:05;;;;;;;10.47;8.63;;;;;;;28.54;39.82;94708.22;5034240;28;20968;-78
2021/09/17 08:44:32;;;;;;;14.17;8.30;;;;;;;28.68;38.33;94708.72;5015978;28;20561;-78
2021/09/17 08:46:59;;;;;;;11.70;9.33;;;;;;;28.97;40.05;94709.44;5034279;28;20439;-78
2021/09/17 08:49:28;;;;;;;10.70;8.83;;;;;;;29.21;39.24;94710.03;5034131;28;20472;-78
2021/09/17 08:51:55;;;;;;;9.23;8.33;;;;;;;29.38;38.92;94709.97;4998912;28;20521;-78
2021/09/17 08:54:22;;;;;;;11.37;9.83;;;;;;;29.40;39.33;94711.34;5033111;28;20530;-79
2021/09/17 08:56:49;;;;;;;10.47;8.50;;;;;;;29.45;38.20;94708.75;5033135;28;20484;-78
2021/09/17 08:59:16;;;;;;;14.57;9.07;;;;;;;29.56;38.56;94723.22;5032978;28;20803;-78
2021/09/17 09:01:43;;;;;;;14.10;9.60;;;;;;;29.55;38.66;94716.19;5033027;28;20533;-78
2021/09/17 09:04:10;;;;;;;12.93;8.90;;;;;;;29.45;37.80;94718.75;5033292;28;20492;-78
2021/09/17 09:06:41;;;;;;;15.93;10.23;;;;;;;29.42;38.03;94711.91;5034119;28;20526;-78
2021/09/17 09:09:15;;;;;;;10.30;9.30;;;;;;;29.54;39.93;94703.72;5033578;28;20926;-78
2021/09/17 09:11:46;;;;;;;15.53;9.30;;;;;;;29.36;38.59;94707.53;5015641;28;20442;-79
2021/09/17 09:14:14;;;;;;;13.40;8.47;;;;;;;29.58;38.64;94702.97;5033845;28;20452;-79
2021/09/17 09:16:43;;;;;;;13.50;9.10;;;;;;;29.58;37.62;94710.25;5033863;28;20453;-78
2021/09/17 09:19:22;;;;;;;15.63;9.73;;;;;;;29.66;39.00;94704.41;5033575;28;20541;-78
2021/09/17 09:21:52;;;;;;;9.60;8.23;;;;;;;29.77;39.32;94697.19;5033463;28;20534;-78
2021/09/17 09:24:20;;;;;;;21.43;9.37;;;;;;;29.75;37.40;94707.47;5014729;28;21757;-79
2021/09/17 09:27:05;;;;;;;11.67;8.77;;;;;;;29.66;37.60;94690.88;5033826;28;20798;-79
2021/09/17 09:29:33;;;;;;;25.20;9.93;;;;;;;29.82;38.95;94695.41;5033028;28;20431;-79
2021/09/17 09:32:00;;;;;;;14.27;9.73;;;;;;;29.96;38.13;94692.28;5033980;28;20787;-79
2021/09/17 09:34:49;;;;;;;14.77;9.63;;;;;;;30.08;37.84;94690.28;4999556;28;20492;-80
2021/09/17 09:37:20;;;;;;;24.43;8.50;;;;;;;30.03;37.40;94696.44;5033854;28;20439;-81
2021/09/17 09:39:55;;;;;;;15.80;9.20;;;;;;;29.76;38.29;94698.28;5033664;28;20517;-79
2021/09/17 09:42:31;;;;;;;27.47;9.57;;;;;;;29.60;38.60;94700.81;5033672;28;20434;-81
2021/09/17 09:45:18;;;;;;;11.83;8.40;;;;;;;29.36;37.85;94688.59;5033543;28;20512;-79
2021/09/17 09:47:48;;;;;;;13.97;8.40;;;;;;;28.76;40.75;94670.47;5033541;28;20924;-81
2021/09/17 09:50:17;;;;;;;19.00;8.50;;;;;;;28.56;41.10;94662.88;5033397;28;20443;-81
2021/09/17 09:52:45;;;;;;;24.73;9.40;;;;;;;28.30;42.34;94655.44;5033883;28;20457;-80
2021/09/17 09:55:12;;;;;;;20.13;10.37;;;;;;;28.03;43.52;94663.34;5033576;28;20521;-79
2021/09/17 09:57:41;;;;;;;14.63;9.10;;;;;;;28.01;42.99;94662.75;5015404;28;20470;-79
2021/09/17 10:00:10;;;;;;;13.60;8.23;;;;;;;27.99;42.43;94654.91;5034152;28;20442;-79
2021/09/17 10:02:38;;;;;;;22.20;8.77;;;;;;;28.12;42.64;94640.31;5033330;28;20932;-79
2021/09/17 10:05:06;;;;;;;16.37;8.73;;;;;;;28.29;42.84;94651.94;5033393;28;21024;-79
2021/09/17 10:07:33;;;;;;;15.70;10.00;;;;;;;28.33;41.60;94641.47;5033631;28;20434;-79
2021/09/17 10:10:04;;;;;;;17.30;8.77;;;;;;;28.28;42.32;94631.41;5033054;28;20460;-82
2021/09/17 10:12:31;;;;;;;26.33;9.37;;;;;;;28.40;42.08;94633.22;5014767;28;20529;-82
2021/09/17 10:14:59;;;;;;;19.30;8.43;;;;;;;28.47;40.88;94639.25;5033529;28;20448;-83
2021/09/17 10:17:29;;;;;;;19.23;9.50;;;;;;;28.54;41.51;94635.31;5033850;28;20920;-81
2021/09/17 10:19:57;;;;;;;14.73;8.63;;;;;;;28.54;41.62;94643.41;4998504;28;20546;-81
2021/09/17 10:22:33;;;;;;;22.10;8.50;;;;;;;28.52;41.01;94642.84;5033053;28;20456;-80
2021/09/17 10:25:10;;;;;;;13.40;7.90;;;;;;;28.55;41.57;94636.13;5033586;28;20470;-82
2021/09/17 10:27:39;;;;;;;20.40;8.00;;;;;;;28.61;40.95;94635.13;5033657;28;20529;-82
2021/09/17 10:30:07;;;;;;;16.70;8.47;;;;;;;28.62;43.23;94625.97;5033334;28;20443;-82
2021/09/17 10:32:44;;;;;;;21.60;8.73;;;;;;;28.61;42.00;94618.94;5033303;28;20792;-82
2021/09/17 10:35:14;;;;;;;19.47;9.10;;;;;;;28.67;43.37;94620.66;5032959;28;20795;-79
2021/09/17 10:37:57;;;;;;;20.93;8.63;;;;;;;28.63;43.98;94616.81;5032197;28;20529;-79
2021/09/17 10:40:37;;;;;;;31.57;9.67;;;;;;;28.54;43.45;94612.91;4998639;28;20444;-78
2021/09/17 10:43:37;;;;;;;25.13;9.00;;;;;;;28.46;44.12;94600.66;5035956;28;20521;-79
2021/09/17 10:46:06;;;;;;;21.63;10.90;;;;;;;28.52;43.60;94596.94;4974316;28;20457;-79
2021/09/17 10:48:57;;;;;;;19.27;8.73;;;;;;;28.52;44.03;94598.81;4974363;28;20548;-79
2021/09/17 10:51:45;;;;;;;20.50;9.10;;;;;;;28.56;43.65;94583.75;4974293;28;20868;-79
2021/09/17 10:54:14;;;;;;;22.87;10.00;;;;;;;28.62;44.16;94580.06;4935582;29;20486;-79
2021/09/17 10:57:07;;;;;;;22.30;10.03;;;;;;;28.75;43.11;94579.72;4935461;29;20470;-79
2021/09/17 10:59:41;;;;;;;18.00;7.70;;;;;;;28.87;41.67;94577.72;4935577;29;20458;-79
2021/09/17 11:02:10;;;;;;;26.50;8.00;;;;;;;29.01;42.17;94566.56;4889302;29;20454;-79
2021/09/17 11:04:39;;;;;;;22.77;8.60;;;;;;;29.15;43.44;94559.69;4935482;29;20565;-79
2021/09/17 11:07:33;;;;;;;22.60;8.20;;;;;;;29.30;43.73;94562.56;4935703;29;20477;-79
2021/09/17 11:10:01;;;;;;;17.43;8.50;;;;;;;29.38;41.16;94553.97;4888802;29;20572;-79
2021/09/17 11:12:31;;;;;;;20.73;8.57;;;;;;;29.38;42.64;94553.16;4935422;29;20451;-79
2021/09/17 11:15:06;;;;;;;30.17;9.13;;;;;;;29.33;41.59;94553.13;4935323;29;20455;-79
2021/09/17 11:17:42;;;;;;;29.30;8.70;;;;;;;29.33;42.02;94551.22;4935280;29;20462;-80
2021/09/17 11:20:11;;;;;;;24.83;8.03;;;;;;;29.26;40.21;94551.44;4935390;29;20445;-79
2021/09/17 11:22:59;;;;;;;23.03;7.67;;;;;;;29.29;40.63;94555.53;4966487;28;20567;-80
2021/09/17 11:25:34;;;;;;;29.60;9.53;;;;;;;29.37;39.68;94546.13;4944677;28;20494;-78
2021/09/17 11:28:05;;;;;;;23.67;8.27;;;;;;;29.41;39.92;94537.25;4992537;28;21006;-78
2021/09/17 11:30:34;;;;;;;27.23;7.53;;;;;;;29.38;39.95;94545.06;4985346;28;20452;-77